sensor_id;sensor_type;location;lat;lon;timestamp;pressure;altitude;pressure_sealevel;temperature;humidity
12360;BME280;6244;51.460;7.090;2023-01-28T00:00:50;101859.69;;;3.62;70.77
12360;BME280;6244;51.460;7.090;2023-01-28T00:05:47;101848.44;;;3.65;70.78
12360;BME280;6244;51.460;7.090;2023-01-28T00:10:44;101851.03;;;3.63;70.80
12360;BME280;6244;51.460;7.090;2023-01-28T00:15:41;101855.38;;;3.63;70.56
12360;BME280;6244;51.460;7.090;2023-01-28T00:20:37;101843.28;;;3.60;70.50
12360;BME280;6244;51.460;7.090;2023-01-28T00:25:35;101851.91;;;3.59;70.46
12360;BME280;6244;51.460;7.090;2023-01-28T00:30:32;101857.97;;;3.58;70.35
12360;BME280;6244;51.460;7.090;2023-01-28T00:35:28;101855.38;;;3.57;70.07
12360;BME280;6244;51.460;7.090;2023-01-28T00:40:25;101862.31;;;3.54;70.06
12360;BME280;6244;51.460;7.090;2023-01-28T00:45:22;101856.25;;;3.56;70.03
12360;BME280;6244;51.460;7.090;2023-01-28T00:50:19;101858.84;;;3.56;70.18
12360;BME280;6244;51.460;7.090;2023-01-28T00:55:16;101866.63;;;3.56;69.86
12360;BME280;6244;51.460;7.090;2023-01-28T01:00:13;101864.03;;;3.56;69.90
12360;BME280;6244;51.460;7.090;2023-01-28T01:05:12;101868.38;;;3.53;69.72
12360;BME280;6244;51.460;7.090;2023-01-28T01:10:10;101863.19;;;3.52;69.88
12360;BME280;6244;51.460;7.090;2023-01-28T01:15:08;101859.72;;;3.51;70.02
12360;BME280;6244;51.460;7.090;2023-01-28T01:20:07;101859.72;;;3.51;69.94
12360;BME280;6244;51.460;7.090;2023-01-28T01:25:07;101852.81;;;3.50;69.76
12360;BME280;6244;51.460;7.090;2023-01-28T01:30:04;101855.41;;;3.50;69.87
12360;BME280;6244;51.460;7.090;2023-01-28T01:35:03;101862.34;;;3.48;69.86
12360;BME280;6244;51.460;7.090;2023-01-28T01:40:03;101870.97;;;3.46;69.79
12360;BME280;6244;51.460;7.090;2023-01-28T01:45:04;101867.50;;;3.47;69.61
12360;BME280;6244;51.460;7.090;2023-01-28T01:50:03;101874.44;;;3.46;69.73
12360;BME280;6244;51.460;7.090;2023-01-28T01:55:08;101876.16;;;3.44;69.55
12360;BME280;6244;51.460;7.090;2023-01-28T02:00:10;101879.63;;;3.43;69.56
12360;BME280;6244;51.460;7.090;2023-01-28T02:05:08;101886.56;;;3.43;69.40
12360;BME280;6244;51.460;7.090;2023-01-28T02:10:06;101890.88;;;3.42;69.38
12360;BME280;6244;51.460;7.090;2023-01-28T02:15:06;101891.75;;;3.40;69.31
12360;BME280;6244;51.460;7.090;2023-01-28T02:20:07;101880.50;;;3.39;69.30
12360;BME280;6244;51.460;7.090;2023-01-28T02:25:33;101891.75;;;3.38;69.16
12360;BME280;6244;51.460;7.090;2023-01-28T02:30:40;101896.06;;;3.39;69.41
12360;BME280;6244;51.460;7.090;2023-01-28T02:35:40;101903.88;;;3.38;69.36
12360;BME280;6244;51.460;7.090;2023-01-28T02:40:41;101899.53;;;3.37;69.05
12360;BME280;6244;51.460;7.090;2023-01-28T02:45:54;101898.66;;;3.35;69.34
12360;BME280;6244;51.460;7.090;2023-01-28T02:51:14;101902.13;;;3.34;69.02
12360;BME280;6244;51.460;7.090;2023-01-28T02:56:20;101902.13;;;3.34;68.90
12360;BME280;6244;51.460;7.090;2023-01-28T03:01:28;101898.66;;;3.32;68.74
12360;BME280;6244;51.460;7.090;2023-01-28T03:06:30;101907.31;;;3.31;68.63
12360;BME280;6244;51.460;7.090;2023-01-28T03:11:32;101901.28;;;3.30;68.66
12360;BME280;6244;51.460;7.090;2023-01-28T03:16:49;101890.03;;;3.28;68.46
12360;BME280;6244;51.460;7.090;2023-01-28T03:22:04;101894.38;;;3.26;68.21
12360;BME280;6244;51.460;7.090;2023-01-28T03:27:18;101888.31;;;3.19;68.19
12360;BME280;6244;51.460;7.090;2023-01-28T03:32:38;101877.09;;;3.23;68.11
12360;BME280;6244;51.460;7.090;2023-01-28T03:37:52;101884.88;;;3.23;68.03
12360;BME280;6244;51.460;7.090;2023-01-28T03:42:49;101889.19;;;3.23;67.98
12360;BME280;6244;51.460;7.090;2023-01-28T03:47:47;101890.94;;;3.22;68.20
12360;BME280;6244;51.460;7.090;2023-01-28T03:52:44;101895.22;;;3.22;68.09
12360;BME280;6244;51.460;7.090;2023-01-28T03:57:40;101894.34;;;3.21;68.12
12360;BME280;6244;51.460;7.090;2023-01-28T04:02:38;101896.09;;;3.21;68.06
12360;BME280;6244;51.460;7.090;2023-01-28T04:07:37;101901.28;;;3.19;67.96
12360;BME280;6244;51.460;7.090;2023-01-28T04:12:33;101907.31;;;3.20;67.89
12360;BME280;6244;51.460;7.090;2023-01-28T04:17:32;101914.25;;;3.19;67.63
12360;BME280;6244;51.460;7.090;2023-01-28T04:22:28;101903.88;;;3.18;67.40
12360;BME280;6244;51.460;7.090;2023-01-28T04:27:26;101921.16;;;3.17;67.38
12360;BME280;6244;51.460;7.090;2023-01-28T04:32:22;101909.94;;;3.12;67.48
12360;BME280;6244;51.460;7.090;2023-01-28T04:37:19;101922.91;;;3.15;67.44
12360;BME280;6244;51.460;7.090;2023-01-28T04:42:15;101922.03;;;3.15;67.35
12360;BME280;6244;51.460;7.090;2023-01-28T04:47:13;101908.22;;;3.14;67.26
12360;BME280;6244;51.460;7.090;2023-01-28T04:52:10;101916.00;;;3.14;67.08
12360;BME280;6244;51.460;7.090;2023-01-28T04:57:06;101906.50;;;3.12;67.26
12360;BME280;6244;51.460;7.090;2023-01-28T05:02:03;101912.53;;;3.12;67.05
12360;BME280;6244;51.460;7.090;2023-01-28T05:07:01;101908.19;;;3.10;66.91
12360;BME280;6244;51.460;7.090;2023-01-28T05:11:57;101909.06;;;3.09;66.82
12360;BME280;6244;51.460;7.090;2023-01-28T05:16:54;101915.09;;;3.08;66.45
12360;BME280;6244;51.460;7.090;2023-01-28T05:21:50;101901.28;;;3.07;66.01
12360;BME280;6244;51.460;7.090;2023-01-28T05:26:48;101903.88;;;3.06;66.37
12360;BME280;6244;51.460;7.090;2023-01-28T05:31:46;101915.13;;;3.05;66.16
12360;BME280;6244;51.460;7.090;2023-01-28T05:36:43;101922.91;;;3.03;66.11
12360;BME280;6244;51.460;7.090;2023-01-28T05:41:39;101910.81;;;3.02;66.16
12360;BME280;6244;51.460;7.090;2023-01-28T05:46:37;101928.09;;;3.00;65.82
12360;BME280;6244;51.460;7.090;2023-01-28T05:51:39;101929.81;;;2.98;65.47
12360;BME280;6244;51.460;7.090;2023-01-28T05:56:36;101939.34;;;2.99;65.58
12360;BME280;6244;51.460;7.090;2023-01-28T06:01:32;101947.06;;;2.98;65.70
12360;BME280;6244;51.460;7.090;2023-01-28T06:06:30;101949.66;;;2.98;65.65
12360;BME280;6244;51.460;7.090;2023-01-28T06:11:27;101945.34;;;2.97;65.46
12360;BME280;6244;51.460;7.090;2023-01-28T06:16:23;101932.41;;;2.93;65.22
12360;BME280;6244;51.460;7.090;2023-01-28T06:21:20;101946.22;;;2.95;65.34
12360;BME280;6244;51.460;7.090;2023-01-28T06:26:18;101943.63;;;2.94;65.51
12360;BME280;6244;51.460;7.090;2023-01-28T06:31:14;101937.59;;;2.93;65.45
12360;BME280;6244;51.460;7.090;2023-01-28T06:36:11;101945.38;;;2.92;65.55
12360;BME280;6244;51.460;7.090;2023-01-28T06:41:07;101946.22;;;2.92;65.58
12360;BME280;6244;51.460;7.090;2023-01-28T06:46:05;101941.03;;;2.91;65.40
12360;BME280;6244;51.460;7.090;2023-01-28T06:51:01;101941.03;;;2.89;65.30
12360;BME280;6244;51.460;7.090;2023-01-28T06:55:58;101935.00;;;2.87;64.94
12360;BME280;6244;51.460;7.090;2023-01-28T07:00:54;101929.81;;;2.86;64.92
12360;BME280;6244;51.460;7.090;2023-01-28T07:05:52;101939.28;;;2.84;64.98
12360;BME280;6244;51.460;7.090;2023-01-28T07:10:49;101948.78;;;2.85;64.97
12360;BME280;6244;51.460;7.090;2023-01-28T07:15:45;101951.38;;;2.83;64.96
12360;BME280;6244;51.460;7.090;2023-01-28T07:20:43;101950.53;;;2.80;64.69
12360;BME280;6244;51.460;7.090;2023-01-28T07:25:42;101945.34;;;2.80;64.70
12360;BME280;6244;51.460;7.090;2023-01-28T07:30:38;101957.44;;;2.78;64.73
12360;BME280;6244;51.460;7.090;2023-01-28T07:35:35;101951.41;;;2.76;64.51
12360;BME280;6244;51.460;7.090;2023-01-28T07:40:31;101963.50;;;2.77;64.42
12360;BME280;6244;51.460;7.090;2023-01-28T07:45:29;101966.09;;;2.77;64.27
12360;BME280;6244;51.460;7.090;2023-01-28T07:50:27;101952.25;;;2.75;64.24
12360;BME280;6244;51.460;7.090;2023-01-28T07:55:24;101961.75;;;2.74;64.27
12360;BME280;6244;51.460;7.090;2023-01-28T08:00:22;101973.81;;;2.72;63.98
12360;BME280;6244;51.460;7.090;2023-01-28T08:05:20;101973.81;;;2.72;64.21
12360;BME280;6244;51.460;7.090;2023-01-28T08:10:18;101994.56;;;2.71;63.94
12360;BME280;6244;51.460;7.090;2023-01-28T08:15:15;102000.59;;;2.70;63.88
12360;BME280;6244;51.460;7.090;2023-01-28T08:20:12;101989.38;;;2.69;64.07
12360;BME280;6244;51.460;7.090;2023-01-28T08:25:10;102001.47;;;2.70;64.03
12360;BME280;6244;51.460;7.090;2023-01-28T08:30:07;102004.06;;;2.70;64.07
12360;BME280;6244;51.460;7.090;2023-01-28T08:35:04;102008.38;;;2.68;63.91
12360;BME280;6244;51.460;7.090;2023-01-28T08:40:02;102018.75;;;2.68;63.99
12360;BME280;6244;51.460;7.090;2023-01-28T08:44:59;102035.16;;;2.72;64.04
12360;BME280;6244;51.460;7.090;2023-01-28T08:49:56;102042.94;;;2.70;63.96
12360;BME280;6244;51.460;7.090;2023-01-28T08:54:52;102060.22;;;2.70;64.01
12360;BME280;6244;51.460;7.090;2023-01-28T08:59:49;102065.41;;;2.70;64.01
12360;BME280;6244;51.460;7.090;2023-01-28T09:22:42;102082.66;;;2.66;63.93
12360;BME280;6244;51.460;7.090;2023-01-28T09:27:39;102082.69;;;2.69;64.07
12360;BME280;6244;51.460;7.090;2023-01-28T09:32:56;102087.00;;;2.67;63.89
12360;BME280;6244;51.460;7.090;2023-01-28T09:37:57;102096.50;;;2.68;63.82
12360;BME280;6244;51.460;7.090;2023-01-28T09:43:00;102099.09;;;2.70;63.51
12360;BME280;6244;51.460;7.090;2023-01-28T09:48:04;102096.50;;;2.68;62.99
12360;BME280;6244;51.460;7.090;2023-01-28T09:53:06;102103.41;;;2.71;63.23
12360;BME280;6244;51.460;7.090;2023-01-28T09:58:04;102096.50;;;2.70;63.16
12360;BME280;6244;51.460;7.090;2023-01-28T10:09:13;102093.03;;;2.66;62.51
12360;BME280;6244;51.460;7.090;2023-01-28T10:14:20;102094.78;;;2.70;62.75
12360;BME280;6244;51.460;7.090;2023-01-28T10:19:24;102099.09;;;2.73;62.80
12360;BME280;6244;51.460;7.090;2023-01-28T10:24:29;102088.72;;;2.73;62.60
12360;BME280;6244;51.460;7.090;2023-01-28T10:29:31;102074.06;;;2.73;62.62
12360;BME280;6244;51.460;7.090;2023-01-28T10:34:29;102068.88;;;2.73;62.53
12360;BME280;6244;51.460;7.090;2023-01-28T10:39:27;102061.97;;;2.75;62.36
12360;BME280;6244;51.460;7.090;2023-01-28T10:44:30;102069.75;;;2.75;62.15
12360;BME280;6244;51.460;7.090;2023-01-28T10:49:29;102080.13;;;2.77;61.93
12360;BME280;6244;51.460;7.090;2023-01-28T10:54:28;102095.69;;;2.77;61.83
12360;BME280;6244;51.460;7.090;2023-01-28T10:59:26;102093.09;;;2.77;61.92
12360;BME280;6244;51.460;7.090;2023-01-28T11:04:25;102104.31;;;2.80;61.86
12360;BME280;6244;51.460;7.090;2023-01-28T11:09:23;102112.97;;;2.79;61.64
12360;BME280;6244;51.460;7.090;2023-01-28T11:14:24;102107.78;;;2.79;61.29
12360;BME280;6244;51.460;7.090;2023-01-28T11:19:26;102125.94;;;2.79;61.22
12360;BME280;6244;51.460;7.090;2023-01-28T11:24:25;102124.19;;;2.75;61.26
12360;BME280;6244;51.460;7.090;2023-01-28T11:29:27;102112.09;;;2.80;61.03
12360;BME280;6244;51.460;7.090;2023-01-28T11:34:27;102096.53;;;2.80;60.95
12360;BME280;6244;51.460;7.090;2023-01-28T11:39:25;102093.94;;;2.80;60.76
12360;BME280;6244;51.460;7.090;2023-01-28T11:44:26;102084.44;;;2.82;60.91
12360;BME280;6244;51.460;7.090;2023-01-28T11:49:32;102090.50;;;2.84;60.88
12360;BME280;6244;51.460;7.090;2023-01-28T11:54:40;102086.19;;;2.83;60.98
12360;BME280;6244;51.460;7.090;2023-01-28T11:59:50;102097.44;;;2.87;60.68
12360;BME280;6244;51.460;7.090;2023-01-28T12:04:59;102090.53;;;2.87;60.64
12360;BME280;6244;51.460;7.090;2023-01-28T12:10:04;102082.75;;;2.89;60.62
12360;BME280;6244;51.460;7.090;2023-01-28T12:15:23;102064.63;;;2.89;60.46
12360;BME280;6244;51.460;7.090;2023-01-28T12:20:27;102042.16;;;2.91;60.72
12360;BME280;6244;51.460;7.090;2023-01-28T12:25:35;102036.09;;;2.90;60.63
12360;BME280;6244;51.460;7.090;2023-01-28T12:30:51;102029.19;;;2.94;60.86
12360;BME280;6244;51.460;7.090;2023-01-28T12:35:59;102033.50;;;2.97;60.96
12360;BME280;6244;51.460;7.090;2023-01-28T12:41:04;102017.09;;;2.98;60.81
12360;BME280;6244;51.460;7.090;2023-01-28T12:46:10;101985.09;;;2.97;60.79
12360;BME280;6244;51.460;7.090;2023-01-28T12:51:11;101958.34;;;3.00;60.33
12360;BME280;6244;51.460;7.090;2023-01-28T12:56:14;101947.09;;;3.02;60.64
12360;BME280;6244;51.460;7.090;2023-01-28T13:01:16;101949.69;;;3.07;60.88
12360;BME280;6244;51.460;7.090;2023-01-28T13:06:24;101948.84;;;3.11;60.94
12360;BME280;6244;51.460;7.090;2023-01-28T13:11:23;101985.13;;;3.21;60.99
12360;BME280;6244;51.460;7.090;2023-01-28T13:16:22;101982.56;;;3.31;60.67
12360;BME280;6244;51.460;7.090;2023-01-28T13:21:29;101990.34;;;3.37;60.51
12360;BME280;6244;51.460;7.090;2023-01-28T13:26:35;101985.16;;;3.47;60.05
12360;BME280;6244;51.460;7.090;2023-01-28T13:31:38;101992.94;;;3.55;59.64
12360;BME280;6244;51.460;7.090;2023-01-28T13:36:38;101985.13;;;3.64;59.23
12360;BME280;6244;51.460;7.090;2023-01-28T13:41:40;102008.50;;;3.67;58.63
12360;BME280;6244;51.460;7.090;2023-01-28T13:46:38;102001.56;;;3.80;58.23
12360;BME280;6244;51.460;7.090;2023-01-28T13:51:36;102003.28;;;3.87;57.83
12360;BME280;6244;51.460;7.090;2023-01-28T13:56:39;102017.97;;;3.96;57.51
12360;BME280;6244;51.460;7.090;2023-01-28T14:01:54;102016.22;;;4.04;57.15
12360;BME280;6244;51.460;7.090;2023-01-28T14:07:02;102021.41;;;4.11;56.85
12360;BME280;6244;51.460;7.090;2023-01-28T14:12:17;102017.91;;;4.17;56.93
12360;BME280;6244;51.460;7.090;2023-01-28T14:17:23;102004.94;;;4.22;56.49
12360;BME280;6244;51.460;7.090;2023-01-28T14:22:25;101982.38;;;4.25;56.81
12360;BME280;6244;51.460;7.090;2023-01-28T14:27:25;101972.84;;;4.30;57.15
12360;BME280;6244;51.460;7.090;2023-01-28T14:32:27;101960.69;;;4.34;56.42
12360;BME280;6244;51.460;7.090;2023-01-28T14:37:28;101955.47;;;4.38;57.07
12360;BME280;6244;51.460;7.090;2023-01-28T14:42:30;101948.53;;;4.40;56.93
12360;BME280;6244;51.460;7.090;2023-01-28T14:47:39;101938.16;;;4.40;56.78
12360;BME280;6244;51.460;7.090;2023-01-28T14:52:54;101935.56;;;4.39;56.65
12360;BME280;6244;51.460;7.090;2023-01-28T14:57:55;101951.16;;;4.37;56.44
12360;BME280;6244;51.460;7.090;2023-01-28T15:02:55;101952.03;;;4.35;56.38
12360;BME280;6244;51.460;7.090;2023-01-28T15:07:56;101964.16;;;4.33;56.60
12360;BME280;6244;51.460;7.090;2023-01-28T15:12:54;101977.16;;;4.33;56.70
12360;BME280;6244;51.460;7.090;2023-01-28T15:17:52;101968.50;;;4.31;56.71
12360;BME280;6244;51.460;7.090;2023-01-28T15:22:52;101978.91;;;4.28;56.55
12360;BME280;6244;51.460;7.090;2023-01-28T15:27:49;102004.03;;;4.26;56.63
12360;BME280;6244;51.460;7.090;2023-01-28T15:32:56;101999.72;;;4.20;56.78
12360;BME280;6244;51.460;7.090;2023-01-28T15:37:54;102017.91;;;4.17;57.04
12360;BME280;6244;51.460;7.090;2023-01-28T15:42:52;102023.13;;;4.14;57.16
12360;BME280;6244;51.460;7.090;2023-01-28T15:47:52;102017.94;;;4.09;56.99
12360;BME280;6244;51.460;7.090;2023-01-28T15:52:59;102019.69;;;4.04;57.16
12360;BME280;6244;51.460;7.090;2023-01-28T15:57:55;102023.16;;;3.99;57.36
12360;BME280;6244;51.460;7.090;2023-01-28T16:02:53;102025.75;;;3.96;57.65
12360;BME280;6244;51.460;7.090;2023-01-28T16:07:50;102026.63;;;3.93;57.68
12360;BME280;6244;51.460;7.090;2023-01-28T16:12:49;102045.69;;;3.91;57.98
12360;BME280;6244;51.460;7.090;2023-01-28T16:17:49;102052.63;;;3.87;58.16
12360;BME280;6244;51.460;7.090;2023-01-28T16:22:46;102038.75;;;3.82;58.34
12360;BME280;6244;51.460;7.090;2023-01-28T16:27:42;102047.41;;;3.78;58.15
12360;BME280;6244;51.460;7.090;2023-01-28T16:32:40;102069.06;;;3.74;58.45
12360;BME280;6244;51.460;7.090;2023-01-28T16:37:37;102069.91;;;3.70;58.44
12360;BME280;6244;51.460;7.090;2023-01-28T16:42:34;102074.25;;;3.66;58.56
12360;BME280;6244;51.460;7.090;2023-01-28T16:47:30;102071.66;;;3.63;58.73
12360;BME280;6244;51.460;7.090;2023-01-28T16:52:28;102058.66;;;3.59;58.91
12360;BME280;6244;51.460;7.090;2023-01-28T16:57:25;102046.56;;;3.56;58.94
12360;BME280;6244;51.460;7.090;2023-01-28T17:02:21;102046.56;;;3.51;59.14
12360;BME280;6244;51.460;7.090;2023-01-28T17:07:18;102043.94;;;3.47;58.95
12360;BME280;6244;51.460;7.090;2023-01-28T17:12:16;102051.75;;;3.44;59.43
12360;BME280;6244;51.460;7.090;2023-01-28T17:17:12;102041.38;;;3.39;59.45
12360;BME280;6244;51.460;7.090;2023-01-28T17:22:09;102040.50;;;3.37;59.42
12360;BME280;6244;51.460;7.090;2023-01-28T17:27:05;102033.56;;;3.33;59.51
12360;BME280;6244;51.460;7.090;2023-01-28T17:32:03;102033.56;;;3.30;59.37
12360;BME280;6244;51.460;7.090;2023-01-28T17:37:02;102052.59;;;3.26;59.76
12360;BME280;6244;51.460;7.090;2023-01-28T17:41:58;102062.94;;;3.20;60.20
12360;BME280;6244;51.460;7.090;2023-01-28T17:46:55;102076.78;;;3.17;60.39
12360;BME280;6244;51.460;7.090;2023-01-28T17:51:53;102059.47;;;3.07;60.61
12360;BME280;6244;51.460;7.090;2023-01-28T17:56:49;102097.50;;;3.08;60.85
12360;BME280;6244;51.460;7.090;2023-01-28T18:01:46;102104.41;;;3.06;60.72
12360;BME280;6244;51.460;7.090;2023-01-28T18:06:44;102096.63;;;3.02;61.02
12360;BME280;6244;51.460;7.090;2023-01-28T18:11:44;102088.81;;;2.97;60.92
12360;BME280;6244;51.460;7.090;2023-01-28T18:16:40;102096.59;;;2.92;61.27
12360;BME280;6244;51.460;7.090;2023-01-28T18:21:38;102106.09;;;2.89;61.22
12360;BME280;6244;51.460;7.090;2023-01-28T18:26:35;102096.56;;;2.85;61.36
12360;BME280;6244;51.460;7.090;2023-01-28T18:31:33;102094.81;;;2.82;61.57
12360;BME280;6244;51.460;7.090;2023-01-28T18:36:30;102093.09;;;2.78;61.71
12360;BME280;6244;51.460;7.090;2023-01-28T18:41:26;102106.91;;;2.74;61.66
12360;BME280;6244;51.460;7.090;2023-01-28T18:46:23;102112.91;;;2.72;61.86
12360;BME280;6244;51.460;7.090;2023-01-28T18:51:21;102120.69;;;2.69;62.17
12360;BME280;6244;51.460;7.090;2023-01-28T18:56:17;102121.53;;;2.63;62.22
12360;BME280;6244;51.460;7.090;2023-01-28T19:01:14;102121.53;;;2.61;62.25
12360;BME280;6244;51.460;7.090;2023-01-28T19:06:10;102125.81;;;2.59;62.34
12360;BME280;6244;51.460;7.090;2023-01-28T19:11:11;102122.34;;;2.56;62.40
12360;BME280;6244;51.460;7.090;2023-01-28T19:16:07;102116.28;;;2.51;62.40
12360;BME280;6244;51.460;7.090;2023-01-28T19:21:05;102113.69;;;2.51;62.45
12360;BME280;6244;51.460;7.090;2023-01-28T19:26:03;102122.31;;;2.48;62.36
12360;BME280;6244;51.460;7.090;2023-01-28T19:31:02;102121.41;;;2.43;62.59
12360;BME280;6244;51.460;7.090;2023-01-28T19:35:59;102126.59;;;2.42;62.77
12360;BME280;6244;51.460;7.090;2023-01-28T19:41:01;102124.00;;;2.39;62.91
12360;BME280;6244;51.460;7.090;2023-01-28T19:46:02;102132.63;;;2.36;63.00
12360;BME280;6244;51.460;7.090;2023-01-28T19:51:04;102138.63;;;2.33;62.98
12360;BME280;6244;51.460;7.090;2023-01-28T19:56:02;102134.28;;;2.29;63.05
12360;BME280;6244;51.460;7.090;2023-01-28T20:01:05;102148.09;;;2.28;63.49
12360;BME280;6244;51.460;7.090;2023-01-28T20:06:03;102142.03;;;2.25;63.21
12360;BME280;6244;51.460;7.090;2023-01-28T20:11:01;102137.72;;;2.24;63.20
12360;BME280;6244;51.460;7.090;2023-01-28T20:15:58;102135.06;;;2.21;63.42
12360;BME280;6244;51.460;7.090;2023-01-28T20:20:56;102133.34;;;2.17;63.50
12360;BME280;6244;51.460;7.090;2023-01-28T20:25:54;102135.03;;;2.15;63.26
12360;BME280;6244;51.460;7.090;2023-01-28T20:30:52;102124.69;;;2.13;63.59
12360;BME280;6244;51.460;7.090;2023-01-28T20:35:49;102122.03;;;2.10;63.61
12360;BME280;6244;51.460;7.090;2023-01-28T20:40:47;102117.72;;;2.08;63.45
12360;BME280;6244;51.460;7.090;2023-01-28T20:45:43;102109.94;;;2.04;63.65
12360;BME280;6244;51.460;7.090;2023-01-28T20:50:40;102096.13;;;2.02;63.78
12360;BME280;6244;51.460;7.090;2023-01-28T20:55:36;102087.50;;;2.02;63.73
12360;BME280;6244;51.460;7.090;2023-01-28T21:00:34;102091.81;;;2.01;63.47
12360;BME280;6244;51.460;7.090;2023-01-28T21:05:30;102084.88;;;1.99;63.74
12360;BME280;6244;51.460;7.090;2023-01-28T21:10:27;102084.84;;;1.96;63.63
12360;BME280;6244;51.460;7.090;2023-01-28T21:15:23;102083.09;;;1.92;63.84
12360;BME280;6244;51.460;7.090;2023-01-28T21:20:21;102082.22;;;1.91;64.11
12360;BME280;6244;51.460;7.090;2023-01-28T21:25:18;102077.03;;;1.88;63.81
12360;BME280;6244;51.460;7.090;2023-01-28T21:30:16;102076.13;;;1.85;64.31
12360;BME280;6244;51.460;7.090;2023-01-28T21:35:14;102071.81;;;1.82;64.08
12360;BME280;6244;51.460;7.090;2023-01-28T21:40:12;102076.09;;;1.80;64.37
12360;BME280;6244;51.460;7.090;2023-01-28T21:45:09;102075.22;;;1.78;64.45
12360;BME280;6244;51.460;7.090;2023-01-28T21:50:06;102075.22;;;1.76;64.26
12360;BME280;6244;51.460;7.090;2023-01-28T21:55:05;102076.06;;;1.74;64.14
12360;BME280;6244;51.460;7.090;2023-01-28T22:00:04;102079.47;;;1.71;64.47
12360;BME280;6244;51.460;7.090;2023-01-28T22:05:02;102083.75;;;1.68;64.63
12360;BME280;6244;51.460;7.090;2023-01-28T22:09:58;102083.75;;;1.68;64.54
12360;BME280;6244;51.460;7.090;2023-01-28T22:14:55;102088.06;;;1.64;65.22
12360;BME280;6244;51.460;7.090;2023-01-28T22:19:53;102090.63;;;1.63;64.79
12360;BME280;6244;51.460;7.090;2023-01-28T22:24:49;102094.91;;;1.61;64.76
12360;BME280;6244;51.460;7.090;2023-01-28T22:29:46;102098.31;;;1.55;64.70
12360;BME280;6244;51.460;7.090;2023-01-28T22:34:42;102107.81;;;1.56;64.67
12360;BME280;6244;51.460;7.090;2023-01-28T22:39:40;102109.53;;;1.56;64.91
12360;BME280;6244;51.460;7.090;2023-01-28T22:44:37;102104.34;;;1.56;64.90
12360;BME280;6244;51.460;7.090;2023-01-28T22:49:33;102100.88;;;1.52;64.85
12360;BME280;6244;51.460;7.090;2023-01-28T22:54:29;102094.84;;;1.50;64.72
12360;BME280;6244;51.460;7.090;2023-01-28T22:59:27;102089.63;;;1.48;65.00
12360;BME280;6244;51.460;7.090;2023-01-28T23:04:24;102092.19;;;1.45;65.12
12360;BME280;6244;51.460;7.090;2023-01-28T23:09:20;102075.81;;;1.46;64.93
12360;BME280;6244;51.460;7.090;2023-01-28T23:14:17;102074.94;;;1.44;65.18
12360;BME280;6244;51.460;7.090;2023-01-28T23:19:33;102064.56;;;1.43;65.27
12360;BME280;6244;51.460;7.090;2023-01-28T23:24:47;102074.06;;;1.42;65.18
12360;BME280;6244;51.460;7.090;2023-01-28T23:29:43;102071.47;;;1.42;65.07
12360;BME280;6244;51.460;7.090;2023-01-28T23:34:42;102080.94;;;1.42;65.18
12360;BME280;6244;51.460;7.090;2023-01-28T23:39:40;102068.88;;;1.39;65.42
12360;BME280;6244;51.460;7.090;2023-01-28T23:49:43;102059.38;;;1.38;65.23
12360;BME280;6244;51.460;7.090;2023-01-28T23:59:45;102032.59;;;1.36;65.48
